Time;durP1;ratioP1;P1;durP2;ratioP2;P2;SDS_P1;SDS_P2;PMS_P1;PMS_P2;Temp;Humidity;BMP_temperature;BMP_pressure;BME280_temperature;BME280_humidity;BME280_pressure;Samples;Min_cycle;Max_cycle;Signal;HPM_P1;HPM_P2
2022/05/12 00:00:36;;;;;;;3.85;1.10;;;;;;;;;;5011667;28;20061;-82
2022/05/12 00:03:03;;;;;;;2.97;0.73;;;;;;;;;;5026813;28;20038;-81
2022/05/12 00:05:29;;;;;;;4.90;1.00;;;;;;;;;;5010247;28;20038;-81
2022/05/12 00:07:55;;;;;;;5.05;0.70;;;;;;;;;;5011912;28;20052;-81
2022/05/12 00:10:22;;;;;;;3.55;1.00;;;;;;;;;;5010177;28;20042;-81
2022/05/12 00:12:49;;;;;;;6.05;1.00;;;;;;;;;;5010023;28;20049;-81
2022/05/12 00:15:17;;;;;;;4.40;0.90;;;;;;;;;;5010219;28;20045;-81
2022/05/12 00:17:44;;;;;;;3.67;1.10;;;;;;;;;;5010191;28;20045;-81
2022/05/12 00:20:11;;;;;;;5.10;1.23;;;;;;;;;;5011896;28;20048;-82
2022/05/12 00:22:37;;;;;;;2.60;0.93;;;;;;;;;;5026279;28;20038;-82
2022/05/12 00:25:04;;;;;;;3.85;0.90;;;;;;;;;;4993895;28;20040;-82
2022/05/12 00:27:30;;;;;;;5.13;1.15;;;;;;;;;;5009377;28;20096;-82
2022/05/12 00:29:56;;;;;;;3.90;1.20;;;;;;;;;;5010770;28;20482;-82
2022/05/12 00:32:22;;;;;;;2.55;1.10;;;;;;;;;;5011328;28;20048;-82
2022/05/12 00:34:48;;;;;;;3.05;1.00;;;;;;;;;;4992115;28;20049;-82
2022/05/12 00:37:14;;;;;;;2.40;0.80;;;;;;;;;;5009971;28;20034;-82
2022/05/12 00:39:40;;;;;;;2.42;0.90;;;;;;;;;;5009813;28;20048;-82
2022/05/12 00:42:06;;;;;;;3.85;1.10;;;;;;;;;;5024877;28;20560;-81
2022/05/12 00:44:32;;;;;;;4.53;1.30;;;;;;;;;;5025746;28;20490;-82
2022/05/12 00:46:58;;;;;;;3.50;1.00;;;;;;;;;;5009326;28;20137;-82
2022/05/12 00:49:38;;;;;;;2.45;1.20;;;;;;;;;;4993251;28;20038;-81
2022/05/12 00:52:06;;;;;;;2.97;1.30;;;;;;;;;;5009416;28;20052;-81
2022/05/12 00:54:44;;;;;;;4.47;1.50;;;;;;;;;;5008760;28;20505;-81
2022/05/12 00:57:12;;;;;;;3.78;1.52;;;;;;;;;;5008440;28;20049;-81
2022/05/12 00:59:38;;;;;;;4.65;1.60;;;;;;;;;;5009222;28;20077;-81
2022/05/12 01:02:08;;;;;;;3.67;1.25;;;;;;;;;;5009213;28;20048;-82
2022/05/12 01:04:34;;;;;;;4.00;1.30;;;;;;;;;;5010103;28;20130;-81
2022/05/12 01:07:01;;;;;;;8.15;1.90;;;;;;;;;;5010144;28;20049;-82
2022/05/12 01:09:28;;;;;;;5.32;1.77;;;;;;;;;;5009089;28;20414;-81
2022/05/12 01:11:54;;;;;;;4.70;1.70;;;;;;;;;;5009314;28;20038;-82
2022/05/12 01:14:20;;;;;;;3.28;1.30;;;;;;;;;;5008801;28;20050;-82
2022/05/12 01:16:55;;;;;;;6.65;1.67;;;;;;;;;;5010033;28;20042;-82
2022/05/12 01:19:22;;;;;;;4.95;1.52;;;;;;;;;;5009121;28;20128;-82
2022/05/12 01:21:49;;;;;;;4.28;1.50;;;;;;;;;;4992458;28;20045;-82
2022/05/12 01:24:16;;;;;;;7.07;1.65;;;;;;;;;;5025584;28;20424;-82
2022/05/12 01:26:42;;;;;;;6.10;1.60;;;;;;;;;;5009818;28;20401;-82
2022/05/12 01:29:09;;;;;;;5.97;1.42;;;;;;;;;;5010176;28;20042;-82
2022/05/12 01:31:36;;;;;;;5.30;1.42;;;;;;;;;;5008707;28;20108;-81
2022/05/12 01:34:03;;;;;;;6.90;1.50;;;;;;;;;;5007512;28;20041;-82
2022/05/12 01:36:29;;;;;;;5.13;1.50;;;;;;;;;;5009751;28;20109;-82
2022/05/12 01:38:55;;;;;;;4.55;1.50;;;;;;;;;;5008921;28;20054;-82
2022/05/12 01:41:22;;;;;;;6.50;1.33;;;;;;;;;;5008880;28;20084;-82
2022/05/12 01:43:48;;;;;;;6.60;1.52;;;;;;;;;;5008318;28;20168;-82
2022/05/12 01:46:14;;;;;;;8.10;1.70;;;;;;;;;;5008552;28;20050;-82
2022/05/12 01:48:40;;;;;;;5.30;1.85;;;;;;;;;;5008451;28;20405;-82
2022/05/12 01:51:07;;;;;;;8.27;2.00;;;;;;;;;;5008710;28;20470;-82
2022/05/12 01:53:33;;;;;;;5.85;1.80;;;;;;;;;;5007705;28;20053;-82
2022/05/12 01:56:00;;;;;;;5.80;1.60;;;;;;;;;;4992669;28;20403;-82
2022/05/12 02:01:48;;;;;;;5.93;1.70;;;;;;;;;;4977137;23;20106;-77
2022/05/12 02:04:15;;;;;;;6.95;1.60;;;;;;;;;;4997745;23;20060;-77
2022/05/12 02:06:42;;;;;;;7.28;2.00;;;;;;;;;;5008561;28;20045;-77
2022/05/12 02:09:08;;;;;;;9.73;1.90;;;;;;;;;;5009163;28;20107;-77
2022/05/12 02:11:35;;;;;;;8.60;2.10;;;;;;;;;;5010093;28;20088;-77
2022/05/12 02:14:01;;;;;;;8.43;2.25;;;;;;;;;;5009750;28;20497;-77
2022/05/12 02:16:29;;;;;;;9.10;1.88;;;;;;;;;;4993565;28;20501;-77
2022/05/12 02:18:56;;;;;;;8.65;2.30;;;;;;;;;;5009590;28;20065;-77
2022/05/12 02:21:22;;;;;;;6.07;2.03;;;;;;;;;;5009419;28;20064;-77
2022/05/12 02:23:48;;;;;;;6.82;1.90;;;;;;;;;;5025716;28;20050;-77
2022/05/12 02:26:14;;;;;;;8.60;2.60;;;;;;;;;;5011150;28;20057;-77
2022/05/12 02:28:41;;;;;;;6.15;2.50;;;;;;;;;;5009188;28;20048;-77
2022/05/12 02:31:07;;;;;;;7.72;2.65;;;;;;;;;;5026330;28;20837;-77
2022/05/12 02:33:33;;;;;;;6.97;2.50;;;;;;;;;;5009215;28;20124;-77
2022/05/12 02:36:02;;;;;;;8.27;2.95;;;;;;;;;;5009303;28;20104;-77
2022/05/12 02:38:28;;;;;;;6.40;2.38;;;;;;;;;;4994218;28;20257;-77
2022/05/12 02:40:54;;;;;;;11.00;2.50;;;;;;;;;;4989935;28;20042;-77
2022/05/12 02:43:23;;;;;;;10.57;2.78;;;;;;;;;;4990071;28;20426;-77
2022/05/12 02:45:54;;;;;;;7.90;2.55;;;;;;;;;;4990193;28;20387;-77
2022/05/12 02:48:21;;;;;;;8.32;2.53;;;;;;;;;;4973401;28;20046;-77
2022/05/12 02:50:47;;;;;;;7.10;2.17;;;;;;;;;;4989639;28;20042;-77
2022/05/12 02:53:13;;;;;;;7.28;2.50;;;;;;;;;;4990046;28;20459;-77
2022/05/12 02:55:39;;;;;;;8.57;2.45;;;;;;;;;;4989316;28;20108;-77
2022/05/12 02:58:05;;;;;;;10.63;2.40;;;;;;;;;;4989611;28;20061;-77
2022/05/12 03:00:33;;;;;;;6.43;2.20;;;;;;;;;;4989447;28;20092;-77
2022/05/12 03:02:59;;;;;;;7.72;2.78;;;;;;;;;;4989505;28;20118;-77
2022/05/12 03:05:26;;;;;;;8.05;2.58;;;;;;;;;;4990434;28;20042;-77
2022/05/12 03:07:52;;;;;;;8.10;2.45;;;;;;;;;;4989837;28;20545;-77
2022/05/12 03:10:19;;;;;;;7.72;2.75;;;;;;;;;;4990015;28;20133;-77
2022/05/12 03:12:45;;;;;;;11.35;2.60;;;;;;;;;;5005780;28;20041;-77
2022/05/12 03:15:12;;;;;;;8.15;2.60;;;;;;;;;;4993109;28;20085;-77
2022/05/12 03:17:39;;;;;;;8.73;3.10;;;;;;;;;;5010416;28;20061;-77
2022/05/12 03:20:07;;;;;;;11.38;2.75;;;;;;;;;;5012616;28;20500;-77
2022/05/12 03:22:33;;;;;;;9.45;2.60;;;;;;;;;;5012590;28;20585;-77
2022/05/12 03:24:59;;;;;;;10.75;3.08;;;;;;;;;;5012383;28;20121;-77
2022/05/12 03:27:25;;;;;;;7.85;2.83;;;;;;;;;;5012306;28;20433;-77
2022/05/12 03:29:51;;;;;;;8.05;2.45;;;;;;;;;;5012741;28;20053;-77
2022/05/12 03:32:17;;;;;;;9.18;2.80;;;;;;;;;;5012558;28;20054;-77
2022/05/12 03:34:44;;;;;;;11.43;3.10;;;;;;;;;;5012193;28;20081;-77
2022/05/12 03:37:10;;;;;;;9.25;2.95;;;;;;;;;;5012006;28;20093;-77
2022/05/12 03:39:38;;;;;;;12.10;3.30;;;;;;;;;;5011984;28;20042;-77
2022/05/12 03:42:08;;;;;;;8.63;3.13;;;;;;;;;;5012033;28;20096;-77
2022/05/12 03:44:50;;;;;;;9.63;3.60;;;;;;;;;;5011551;28;21148;-77
2022/05/12 03:47:20;;;;;;;7.93;3.22;;;;;;;;;;4995735;28;20038;-77
2022/05/12 03:49:50;;;;;;;13.75;3.83;;;;;;;;;;5012175;28;20468;-77
2022/05/12 03:52:18;;;;;;;12.25;3.75;;;;;;;;;;5012302;28;20057;-77
2022/05/12 03:54:44;;;;;;;9.85;3.75;;;;;;;;;;5011989;28;20533;-77
2022/05/12 03:57:12;;;;;;;10.20;3.58;;;;;;;;;;5011734;28;20088;-77
2022/05/12 03:59:39;;;;;;;13.07;4.07;;;;;;;;;;5011145;28;20092;-77
2022/05/12 04:02:06;;;;;;;11.90;4.50;;;;;;;;;;5009013;28;20073;-77
2022/05/12 04:04:32;;;;;;;12.02;4.30;;;;;;;;;;5011119;28;20437;-77
2022/05/12 04:06:59;;;;;;;10.88;4.53;;;;;;;;;;5010350;28;20038;-77
2022/05/12 04:09:25;;;;;;;15.65;5.30;;;;;;;;;;5011473;28;20033;-77
2022/05/12 04:11:52;;;;;;;11.00;4.13;;;;;;;;;;5011928;28;20045;-77
2022/05/12 04:14:18;;;;;;;13.50;4.55;;;;;;;;;;5011138;28;20056;-77
2022/05/12 04:16:44;;;;;;;18.52;4.57;;;;;;;;;;5010398;28;20041;-77
2022/05/12 04:19:11;;;;;;;12.02;4.30;;;;;;;;;;4994480;28;20042;-77
2022/05/12 04:21:38;;;;;;;10.30;4.50;;;;;;;;;;5010327;28;20053;-77
2022/05/12 04:24:05;;;;;;;11.75;4.35;;;;;;;;;;5011028;28;20092;-77
2022/05/12 04:26:32;;;;;;;9.18;3.97;;;;;;;;;;4994128;28;20053;-78
2022/05/12 04:28:58;;;;;;;8.88;3.72;;;;;;;;;;4993262;28;20091;-77
2022/05/12 04:31:24;;;;;;;11.05;3.95;;;;;;;;;;4995247;28;20378;-77
2022/05/12 04:36:36;;;;;;;9.32;3.75;;;;;;;;;;5010777;28;20038;-77
2022/05/12 04:39:03;;;;;;;8.80;3.60;;;;;;;;;;5011905;28;20033;-77
2022/05/12 04:41:29;;;;;;;11.50;3.97;;;;;;;;;;4994508;28;20049;-77
2022/05/12 04:43:55;;;;;;;11.07;3.67;;;;;;;;;;5010947;28;20386;-77
2022/05/12 04:46:24;;;;;;;8.25;4.18;;;;;;;;;;5010954;28;20095;-77
2022/05/12 04:48:50;;;;;;;8.02;3.90;;;;;;;;;;5010336;28;20072;-77
2022/05/12 04:51:16;;;;;;;9.93;3.40;;;;;;;;;;4993987;28;20057;-78
2022/05/12 04:53:42;;;;;;;9.93;3.67;;;;;;;;;;4994119;28;20049;-78
2022/05/12 04:56:08;;;;;;;9.77;4.18;;;;;;;;;;4994141;28;20042;-78
2022/05/12 04:58:34;;;;;;;7.65;3.65;;;;;;;;;;4994207;28;20568;-78
2022/05/12 05:01:00;;;;;;;7.65;3.38;;;;;;;;;;4994201;28;20482;-78
2022/05/12 05:03:27;;;;;;;9.02;3.70;;;;;;;;;;5010399;28;20068;-78
2022/05/12 05:05:53;;;;;;;5.97;3.42;;;;;;;;;;5010664;28;20112;-78
2022/05/12 05:08:21;;;;;;;9.25;3.90;;;;;;;;;;4990652;28;20046;-78
2022/05/12 05:10:48;;;;;;;8.30;3.55;;;;;;;;;;4985950;28;20830;-78
2022/05/12 05:13:15;;;;;;;9.63;4.00;;;;;;;;;;5010119;28;20048;-78
2022/05/12 05:15:41;;;;;;;8.52;3.60;;;;;;;;;;4993727;28;20056;-78
2022/05/12 05:18:11;;;;;;;8.77;3.33;;;;;;;;;;5010194;28;20052;-79
2022/05/12 05:20:37;;;;;;;8.57;3.70;;;;;;;;;;4994127;28;20708;-79
2022/05/12 05:23:03;;;;;;;7.45;3.55;;;;;;;;;;5009970;28;20046;-79
2022/05/12 05:25:31;;;;;;;8.10;3.58;;;;;;;;;;5009850;28;20044;-79
2022/05/12 05:27:57;;;;;;;7.82;3.80;;;;;;;;;;5010312;28;20119;-79
2022/05/12 05:30:24;;;;;;;9.15;3.58;;;;;;;;;;5010189;28;20397;-79
2022/05/12 05:32:50;;;;;;;8.90;3.50;;;;;;;;;;5009926;28;20065;-79
2022/05/12 05:35:17;;;;;;;6.90;3.25;;;;;;;;;;5010266;28;20485;-77
2022/05/12 05:37:43;;;;;;;8.25;3.15;;;;;;;;;;5008658;28;20581;-77
2022/05/12 05:40:13;;;;;;;8.70;3.63;;;;;;;;;;5008932;28;20037;-76
2022/05/12 05:42:40;;;;;;;9.35;3.47;;;;;;;;;;4992991;28;20478;-80
2022/05/12 05:45:10;;;;;;;11.23;4.25;;;;;;;;;;5009146;28;20045;-78
2022/05/12 05:47:38;;;;;;;7.88;2.88;;;;;;;;;;5009216;28;20080;-77
2022/05/12 05:50:04;;;;;;;8.48;3.47;;;;;;;;;;5008804;28;20038;-78
2022/05/12 05:55:15;;;;;;;9.35;3.30;;;;;;;;;;5008938;28;20050;-78
2022/05/12 05:57:43;;;;;;;6.75;3.33;;;;;;;;;;4992573;28;20410;-78
2022/05/12 06:00:12;;;;;;;8.55;3.55;;;;;;;;;;5009520;28;20053;-78
2022/05/12 06:02:38;;;;;;;9.18;4.03;;;;;;;;;;5008313;28;20053;-77
2022/05/12 06:05:05;;;;;;;8.05;3.40;;;;;;;;;;5008794;28;20089;-77
2022/05/12 06:07:32;;;;;;;8.65;3.28;;;;;;;;;;5008906;28;20488;-77
2022/05/12 06:09:58;;;;;;;8.82;3.10;;;;;;;;;;5008986;28;20465;-78
2022/05/12 06:12:24;;;;;;;10.68;3.78;;;;;;;;;;4992241;28;20074;-78
2022/05/12 06:14:50;;;;;;;8.48;3.42;;;;;;;;;;4988887;28;20482;-78
2022/05/12 06:17:17;;;;;;;7.38;2.88;;;;;;;;;;4983366;28;20064;-78
2022/05/12 06:19:43;;;;;;;7.03;2.63;;;;;;;;;;4991788;28;20049;-78
2022/05/12 06:22:09;;;;;;;5.65;2.35;;;;;;;;;;5008880;28;20050;-78
2022/05/12 06:24:35;;;;;;;6.72;2.60;;;;;;;;;;5008297;28;20046;-78
2022/05/12 06:27:02;;;;;;;8.23;2.78;;;;;;;;;;5009106;28;20394;-79
2022/05/12 06:29:28;;;;;;;9.70;2.55;;;;;;;;;;4992180;28;20502;-79
2022/05/12 06:31:54;;;;;;;6.28;2.15;;;;;;;;;;5008432;28;20041;-79
2022/05/12 06:34:20;;;;;;;7.15;2.40;;;;;;;;;;5008457;28;20046;-79
2022/05/12 06:36:46;;;;;;;7.47;2.90;;;;;;;;;;5008379;28;20528;-79
2022/05/12 06:39:12;;;;;;;7.30;2.35;;;;;;;;;;4988960;28;20193;-79
2022/05/12 06:41:38;;;;;;;8.63;2.17;;;;;;;;;;5003889;28;20053;-79
2022/05/12 06:44:05;;;;;;;8.95;2.10;;;;;;;;;;4992106;28;20549;-79
2022/05/12 06:46:31;;;;;;;5.90;1.95;;;;;;;;;;5008281;28;20429;-79
2022/05/12 06:48:57;;;;;;;10.43;2.35;;;;;;;;;;5008432;28;20521;-79
2022/05/12 06:51:23;;;;;;;7.15;2.10;;;;;;;;;;5008788;28;20269;-79
2022/05/12 06:53:49;;;;;;;8.13;1.90;;;;;;;;;;4995277;28;20107;-79
2022/05/12 06:56:15;;;;;;;6.63;2.10;;;;;;;;;;5012275;28;20050;-79
2022/05/12 06:58:42;;;;;;;10.07;2.55;;;;;;;;;;5011825;28;20048;-79
2022/05/12 07:01:09;;;;;;;8.30;1.98;;;;;;;;;;5011758;28;20216;-79
2022/05/12 07:03:35;;;;;;;7.18;2.00;;;;;;;;;;5010936;28;20065;-78
2022/05/12 07:06:02;;;;;;;9.00;1.88;;;;;;;;;;5012393;28;20068;-79
2022/05/12 07:08:28;;;;;;;7.43;1.70;;;;;;;;;;5011688;28;20080;-79
2022/05/12 07:10:54;;;;;;;7.82;1.90;;;;;;;;;;4995425;28;20041;-79
2022/05/12 07:13:21;;;;;;;6.50;1.90;;;;;;;;;;5011770;28;20485;-79
2022/05/12 07:15:49;;;;;;;9.07;2.22;;;;;;;;;;5011488;28;20054;-79
2022/05/12 07:18:15;;;;;;;7.88;2.08;;;;;;;;;;5011678;28;20065;-79
2022/05/12 07:28:56;;;;;;;6.57;2.00;;;;;;;;;;5011799;28;20643;-78
2022/05/12 07:31:22;;;;;;;7.40;2.28;;;;;;;;;;4994975;28;20045;-79
2022/05/12 07:33:49;;;;;;;7.57;2.35;;;;;;;;;;5011672;28;20442;-78
2022/05/12 07:36:20;;;;;;;9.43;2.30;;;;;;;;;;5011319;28;20060;-78
2022/05/12 07:38:47;;;;;;;7.72;1.95;;;;;;;;;;4997405;28;20058;-78
2022/05/12 07:41:13;;;;;;;9.05;2.30;;;;;;;;;;5010953;28;20346;-79
2022/05/12 07:43:40;;;;;;;7.90;2.53;;;;;;;;;;5010633;28;20038;-78
2022/05/12 07:46:06;;;;;;;9.45;2.20;;;;;;;;;;5011443;28;20046;-79
2022/05/12 07:48:33;;;;;;;6.65;1.90;;;;;;;;;;5010675;28;20034;-78
2022/05/12 07:50:59;;;;;;;6.78;1.98;;;;;;;;;;5011224;28;20042;-79
2022/05/12 07:53:25;;;;;;;10.27;2.38;;;;;;;;;;5010982;28;20344;-79
2022/05/12 07:55:51;;;;;;;9.65;2.05;;;;;;;;;;4994414;28;20042;-79
2022/05/12 07:58:18;;;;;;;9.48;2.58;;;;;;;;;;5011042;28;20049;-78
2022/05/12 08:00:44;;;;;;;6.82;2.20;;;;;;;;;;5010738;28;20469;-78
2022/05/12 08:03:10;;;;;;;10.38;2.10;;;;;;;;;;5010733;28;20104;-78
2022/05/12 08:05:36;;;;;;;6.13;2.00;;;;;;;;;;4993973;28;20081;-78
2022/05/12 08:08:06;;;;;;;6.85;2.20;;;;;;;;;;5011104;28;20073;-79
2022/05/12 08:10:32;;;;;;;6.82;2.35;;;;;;;;;;5010416;28;20545;-78
2022/05/12 08:12:59;;;;;;;8.93;2.05;;;;;;;;;;5011959;28;20037;-78
2022/05/12 08:15:25;;;;;;;7.93;2.08;;;;;;;;;;5010718;28;20497;-79
2022/05/12 08:17:52;;;;;;;6.93;1.90;;;;;;;;;;5010400;28;20050;-79
2022/05/12 08:20:18;;;;;;;7.68;1.88;;;;;;;;;;5010276;28;20049;-79
2022/05/12 08:22:44;;;;;;;9.75;2.10;;;;;;;;;;4990707;28;20506;-79
2022/05/12 08:25:10;;;;;;;9.25;1.98;;;;;;;;;;4977904;28;20371;-79
2022/05/12 08:27:37;;;;;;;8.00;1.83;;;;;;;;;;5002615;28;20115;-78
2022/05/12 08:30:05;;;;;;;7.10;1.90;;;;;;;;;;4994216;28;20037;-79
2022/05/12 08:32:31;;;;;;;7.95;2.20;;;;;;;;;;4990261;28;20077;-78
2022/05/12 08:34:57;;;;;;;7.88;2.08;;;;;;;;;;5007133;28;20397;-79
2022/05/12 08:37:23;;;;;;;8.00;2.00;;;;;;;;;;5010147;28;20038;-79
2022/05/12 08:39:49;;;;;;;7.38;2.00;;;;;;;;;;4993340;28;20124;-79
2022/05/12 08:42:23;;;;;;;7.82;1.92;;;;;;;;;;5010075;28;20045;-79
2022/05/12 08:44:50;;;;;;;8.73;2.20;;;;;;;;;;4993432;28;21011;-79
2022/05/12 08:47:19;;;;;;;6.25;1.92;;;;;;;;;;4996307;28;20034;-79
2022/05/12 08:49:52;;;;;;;8.35;1.90;;;;;;;;;;5009705;28;20053;-79
2022/05/12 08:52:37;;;;;;;7.22;1.80;;;;;;;;;;5009878;28;20049;-79
2022/05/12 08:55:14;;;;;;;7.22;2.05;;;;;;;;;;5010144;28;20041;-79
2022/05/12 08:57:56;;;;;;;7.68;2.20;;;;;;;;;;5009402;28;20077;-79
2022/05/12 09:00:23;;;;;;;6.25;1.70;;;;;;;;;;5009903;28;20524;-79
2022/05/12 09:03:08;;;;;;;8.63;2.10;;;;;;;;;;5009364;28;20445;-79
2022/05/12 09:05:43;;;;;;;8.30;1.70;;;;;;;;;;5009307;28;20042;-79
2022/05/12 09:08:27;;;;;;;6.00;1.95;;;;;;;;;;5010010;28;20099;-79
2022/05/12 09:10:59;;;;;;;5.18;1.55;;;;;;;;;;5009093;28;20504;-79
2022/05/12 09:13:28;;;;;;;5.65;1.50;;;;;;;;;;5009353;28;20117;-78
2022/05/12 09:16:12;;;;;;;6.13;1.35;;;;;;;;;;5008642;28;20060;-78
2022/05/12 09:18:39;;;;;;;6.25;1.55;;;;;;;;;;5009402;28;20354;-78
2022/05/12 09:21:10;;;;;;;4.88;1.38;;;;;;;;;;5009713;28;20215;-78
2022/05/12 09:23:37;;;;;;;6.53;1.40;;;;;;;;;;5009012;28;20734;-78
2022/05/12 09:26:22;;;;;;;5.30;1.40;;;;;;;;;;4993372;28;20144;-78
2022/05/12 09:28:49;;;;;;;5.87;1.73;;;;;;;;;;5010473;28;20046;-78
2022/05/12 09:31:15;;;;;;;5.15;1.30;;;;;;;;;;5008934;28;20124;-78
2022/05/12 09:33:42;;;;;;;6.47;1.45;;;;;;;;;;5009814;28;20038;-78
2022/05/12 09:36:14;;;;;;;6.25;1.20;;;;;;;;;;5009267;28;20049;-78
2022/05/12 09:38:41;;;;;;;4.95;1.45;;;;;;;;;;5010279;28;20034;-78
2022/05/12 09:41:17;;;;;;;5.72;1.48;;;;;;;;;;4993159;28;20050;-78
2022/05/12 09:43:44;;;;;;;4.18;1.20;;;;;;;;;;4991871;28;20036;-78
2022/05/12 09:46:16;;;;;;;3.78;1.30;;;;;;;;;;5009243;28;20045;-78
2022/05/12 09:48:43;;;;;;;5.75;1.40;;;;;;;;;;5008354;28;20077;-79
2022/05/12 09:51:29;;;;;;;5.07;1.40;;;;;;;;;;4989553;28;20542;-78
2022/05/12 09:54:13;;;;;;;8.20;1.42;;;;;;;;;;4991256;28;20482;-79
2022/05/12 09:56:40;;;;;;;6.10;1.27;;;;;;;;;;5008944;28;20398;-79
2022/05/12 09:59:10;;;;;;;5.18;1.75;;;;;;;;;;5008778;28;20069;-78
2022/05/12 10:01:48;;;;;;;6.07;1.25;;;;;;;;;;5008570;28;20052;-79
2022/05/12 10:09:53;;;;;;;4.13;1.20;;;;;;;;;;5008541;28;20056;-79
2022/05/12 10:12:24;;;;;;;5.18;1.27;;;;;;;;;;5008650;28;20049;-79
2022/05/12 10:14:50;;;;;;;6.03;1.50;;;;;;;;;;5007729;28;20100;-78
2022/05/12 10:17:26;;;;;;;5.80;1.30;;;;;;;;;;5009021;28;20394;-79
2022/05/12 10:19:52;;;;;;;4.18;1.40;;;;;;;;;;5008360;28;20046;-78
2022/05/12 10:22:22;;;;;;;5.93;1.50;;;;;;;;;;5008440;28;20065;-79
2022/05/12 10:24:51;;;;;;;7.97;2.05;;;;;;;;;;5007994;28;20037;-79
2022/05/12 10:27:24;;;;;;;5.82;1.77;;;;;;;;;;4990440;28;20069;-80
2022/05/12 10:29:50;;;;;;;6.63;1.48;;;;;;;;;;5008803;28;20117;-79
2022/05/12 10:32:25;;;;;;;5.57;1.38;;;;;;;;;;5012614;28;20080;-79
2022/05/12 10:35:06;;;;;;;7.00;1.90;;;;;;;;;;5012016;28;20445;-79
2022/05/12 10:37:33;;;;;;;4.38;1.30;;;;;;;;;;4996196;28;20049;-79
2022/05/12 10:40:18;;;;;;;4.18;1.30;;;;;;;;;;4994820;28;20070;-80
2022/05/12 10:42:57;;;;;;;6.93;1.30;;;;;;;;;;5012255;28;20049;-79
2022/05/12 10:45:42;;;;;;;4.07;1.20;;;;;;;;;;5012748;28;20053;-80
2022/05/12 10:48:26;;;;;;;5.50;1.48;;;;;;;;;;5012380;28;20052;-79
2022/05/12 10:50:52;;;;;;;6.18;1.20;;;;;;;;;;5012307;28;20470;-79
2022/05/12 10:53:37;;;;;;;4.93;1.42;;;;;;;;;;5012223;28;20128;-79
2022/05/12 10:56:23;;;;;;;3.63;1.20;;;;;;;;;;5012232;28;20046;-79
2022/05/12 10:58:49;;;;;;;;;;;;;;;;;;4995816;28;20303;-79
2022/05/12 11:01:19;;;;;;;5.43;1.30;;;;;;;;;;5012018;28;19917;-79
2022/05/12 11:04:04;;;;;;;5.50;1.38;;;;;;;;;;5011310;28;20108;-79
2022/05/12 11:06:49;;;;;;;5.13;1.42;;;;;;;;;;5012107;28;20042;-79
2022/05/12 11:09:18;;;;;;;4.30;1.13;;;;;;;;;;5012302;28;20616;-79
2022/05/12 11:11:49;;;;;;;3.92;1.20;;;;;;;;;;5011871;28;20038;-79
2022/05/12 11:14:23;;;;;;;5.38;1.20;;;;;;;;;;5012105;28;20529;-79
2022/05/12 11:17:08;;;;;;;4.70;1.40;;;;;;;;;;5011342;28;20046;-79
2022/05/12 11:19:35;;;;;;;6.07;1.17;;;;;;;;;;4995166;28;20501;-79
2022/05/12 11:22:20;;;;;;;3.58;1.27;;;;;;;;;;4995249;28;20155;-79
2022/05/12 11:24:57;;;;;;;5.50;1.85;;;;;;;;;;5011509;28;20129;-79
2022/05/12 11:27:23;;;;;;;4.00;1.30;;;;;;;;;;5011723;28;20045;-80
2022/05/12 11:30:04;;;;;;;8.75;1.77;;;;;;;;;;5011244;28;20478;-79
2022/05/12 11:32:30;;;;;;;5.30;1.35;;;;;;;;;;5011538;28;20045;-79
2022/05/12 11:34:59;;;;;;;4.75;1.05;;;;;;;;;;5011251;28;20053;-80
2022/05/12 11:37:31;;;;;;;5.55;1.48;;;;;;;;;;4994492;28;20046;-80
2022/05/12 11:40:05;;;;;;;4.78;1.20;;;;;;;;;;4994949;28;20172;-80
2022/05/12 11:45:42;;;;;;;5.90;1.23;;;;;;;;;;5011049;28;20042;-80
2022/05/12 11:48:34;;;;;;;3.85;1.10;;;;;;;;;;5011563;28;20450;-80
2022/05/12 11:51:08;;;;;;;3.88;0.90;;;;;;;;;;5011548;28;20056;-80
2022/05/12 11:53:47;;;;;;;4.72;1.10;;;;;;;;;;5010840;28;20046;-80
2022/05/12 11:56:13;;;;;;;5.57;1.08;;;;;;;;;;5011335;28;20375;-80
2022/05/12 11:58:44;;;;;;;4.55;1.13;;;;;;;;;;5010821;28;20048;-80
2022/05/12 12:01:33;;;;;;;4.22;1.00;;;;;;;;;;5010657;28;20119;-80
2022/05/12 12:04:00;;;;;;;2.63;0.93;;;;;;;;;;5010330;28;20057;-79
2022/05/12 12:06:53;;;;;;;4.60;1.10;;;;;;;;;;5011385;28;20042;-79
2022/05/12 12:09:37;;;;;;;6.10;1.15;;;;;;;;;;5006580;28;20494;-79
2022/05/12 12:12:05;;;;;;;3.80;1.67;;;;;;;;;;5011776;28;20250;-79
2022/05/12 12:14:44;;;;;;;3.53;1.10;;;;;;;;;;5010172;28;20042;-79
2022/05/12 12:17:29;;;;;;;5.35;1.30;;;;;;;;;;5010353;28;20464;-79
2022/05/12 12:19:57;;;;;;;7.07;1.40;;;;;;;;;;5010501;28;20042;-78
2022/05/12 12:22:37;;;;;;;4.53;1.30;;;;;;;;;;4994320;28;20449;-79
2022/05/12 12:25:03;;;;;;;4.28;1.20;;;;;;;;;;5010233;28;20073;-79
2022/05/12 12:27:57;;;;;;;5.55;1.40;;;;;;;;;;4994183;28;20044;-80
2022/05/12 12:30:33;;;;;;;6.50;1.40;;;;;;;;;;4991543;28;20039;-79
2022/05/12 12:33:11;;;;;;;3.28;1.20;;;;;;;;;;5004664;28;20045;-79
2022/05/12 12:35:51;;;;;;;3.92;1.10;;;;;;;;;;4993729;28;20038;-78
2022/05/12 12:38:36;;;;;;;5.93;1.30;;;;;;;;;;5010399;28;20533;-79
2022/05/12 12:41:03;;;;;;;3.70;1.00;;;;;;;;;;5010314;28;20502;-79
2022/05/12 12:43:41;;;;;;;4.22;1.20;;;;;;;;;;4993478;28;20156;-79
2022/05/12 12:46:16;;;;;;;4.00;1.10;;;;;;;;;;5010270;28;20061;-78
2022/05/12 12:48:49;;;;;;;3.92;1.05;;;;;;;;;;5009519;28;20042;-78
2022/05/12 12:51:27;;;;;;;4.60;1.00;;;;;;;;;;4989493;28;20125;-78
2022/05/12 12:56:38;;;;;;;3.85;1.08;;;;;;;;;;5009579;28;20133;-78
2022/05/12 12:59:08;;;;;;;5.82;1.10;;;;;;;;;;5009497;28;20045;-78
2022/05/12 13:01:54;;;;;;;5.07;1.25;;;;;;;;;;5009341;28;20050;-78
2022/05/12 13:04:24;;;;;;;4.70;0.80;;;;;;;;;;4995763;28;20042;-78
2022/05/12 13:06:51;;;;;;;3.60;0.90;;;;;;;;;;5011058;28;20050;-78
2022/05/12 13:09:23;;;;;;;5.80;1.15;;;;;;;;;;5009249;28;20046;-78
2022/05/12 13:11:49;;;;;;;2.35;0.85;;;;;;;;;;4993022;28;20037;-79
2022/05/12 13:14:16;;;;;;;5.00;1.10;;;;;;;;;;5009339;28;20381;-78
2022/05/12 13:16:44;;;;;;;1.85;0.93;;;;;;;;;;5009701;28;20383;-79
2022/05/12 13:19:10;;;;;;;3.65;0.90;;;;;;;;;;5009729;28;20545;-78
2022/05/12 13:21:38;;;;;;;3.75;1.13;;;;;;;;;;5010025;28;20038;-79
2022/05/12 13:24:17;;;;;;;4.95;1.02;;;;;;;;;;5009465;28;20046;-78
2022/05/12 13:26:45;;;;;;;5.65;1.23;;;;;;;;;;5008869;28;20042;-78
2022/05/12 13:29:15;;;;;;;7.75;1.23;;;;;;;;;;5009596;28;20077;-78
2022/05/12 13:31:42;;;;;;;3.00;0.90;;;;;;;;;;5008924;28;20042;-78
2022/05/12 13:34:15;;;;;;;4.75;1.00;;;;;;;;;;5009413;28;20045;-79
2022/05/12 13:36:49;;;;;;;2.53;0.80;;;;;;;;;;4992691;28;21111;-79
2022/05/12 13:39:34;;;;;;;4.40;0.98;;;;;;;;;;5008935;28;20046;-78
2022/05/12 13:42:04;;;;;;;3.65;0.88;;;;;;;;;;5009661;28;20080;-79
2022/05/12 13:44:36;;;;;;;7.18;1.20;;;;;;;;;;5008726;28;20046;-80
2022/05/12 13:47:04;;;;;;;3.10;0.80;;;;;;;;;;5009541;28;20402;-80
2022/05/12 13:49:35;;;;;;;3.72;0.82;;;;;;;;;;5009220;28;20111;-79
2022/05/12 13:52:16;;;;;;;3.65;0.90;;;;;;;;;;5009435;28;20042;-79
2022/05/12 13:55:00;;;;;;;6.72;0.90;;;;;;;;;;4992500;28;20045;-80
2022/05/12 13:57:39;;;;;;;4.13;0.80;;;;;;;;;;5008690;28;20033;-79
2022/05/12 14:00:05;;;;;;;3.30;0.88;;;;;;;;;;4992674;28;20050;-79
2022/05/12 14:02:34;;;;;;;4.22;0.75;;;;;;;;;;5008511;28;20049;-79
2022/05/12 14:05:15;;;;;;;2.80;0.90;;;;;;;;;;5008033;28;20049;-79
2022/05/12 14:07:42;;;;;;;3.38;1.10;;;;;;;;;;4992191;28;20034;-79
2022/05/12 14:10:31;;;;;;;3.30;0.80;;;;;;;;;;5008815;28;20125;-79
2022/05/12 14:21:15;;;;;;;4.45;1.00;;;;;;;;;;5008853;28;20050;-79
2022/05/12 14:23:41;;;;;;;3.58;0.82;;;;;;;;;;5008211;28;20046;-79
2022/05/12 14:26:07;;;;;;;5.40;1.33;;;;;;;;;;4992351;28;20129;-79
2022/05/12 14:28:34;;;;;;;4.05;0.90;;;;;;;;;;5008441;28;20046;-79
2022/05/12 14:31:01;;;;;;;5.40;1.00;;;;;;;;;;5008624;28;20541;-79
2022/05/12 14:33:29;;;;;;;5.07;1.05;;;;;;;;;;5008333;28;20474;-79
2022/05/12 14:35:55;;;;;;;4.85;1.20;;;;;;;;;;5008172;28;20046;-79
2022/05/12 14:38:22;;;;;;;2.80;0.90;;;;;;;;;;5008623;28;20042;-79
2022/05/12 14:40:48;;;;;;;5.97;1.10;;;;;;;;;;4992276;28;20100;-79
2022/05/12 14:43:14;;;;;;;5.25;1.00;;;;;;;;;;5008375;28;20424;-79
2022/05/12 14:45:40;;;;;;;5.35;1.00;;;;;;;;;;4991590;28;20509;-79
2022/05/12 14:48:07;;;;;;;3.97;1.00;;;;;;;;;;5008591;28;20050;-79
2022/05/12 14:50:35;;;;;;;5.68;1.33;;;;;;;;;;4991712;28;20528;-79
2022/05/12 14:53:08;;;;;;;3.85;1.20;;;;;;;;;;5008707;28;20046;-79
2022/05/12 14:55:34;;;;;;;5.20;1.00;;;;;;;;;;5007980;28;20045;-79
2022/05/12 14:58:00;;;;;;;4.10;1.00;;;;;;;;;;5008342;28;20533;-79
2022/05/12 15:00:26;;;;;;;2.92;1.00;;;;;;;;;;5008251;28;20046;-79
2022/05/12 15:02:52;;;;;;;5.45;1.00;;;;;;;;;;5008050;28;20045;-79
2022/05/12 15:05:19;;;;;;;5.22;1.02;;;;;;;;;;5007790;28;20062;-79
2022/05/12 15:07:45;;;;;;;4.30;1.20;;;;;;;;;;4991903;28;20425;-78
2022/05/12 15:10:12;;;;;;;3.88;1.05;;;;;;;;;;5007991;28;20034;-78
2022/05/12 15:12:39;;;;;;;5.07;1.05;;;;;;;;;;5007830;28;20038;-78
2022/05/12 15:15:06;;;;;;;2.78;0.85;;;;;;;;;;5011443;28;20085;-78
2022/05/12 15:17:33;;;;;;;3.38;1.00;;;;;;;;;;5011889;28;20548;-78
2022/05/12 15:20:00;;;;;;;6.47;0.90;;;;;;;;;;5011323;28;20145;-79
2022/05/12 15:22:26;;;;;;;2.83;0.90;;;;;;;;;;5013472;28;20095;-79
2022/05/12 15:24:53;;;;;;;5.28;1.48;;;;;;;;;;5011443;28;20412;-78
2022/05/12 15:27:22;;;;;;;4.10;1.00;;;;;;;;;;5011710;28;20046;-78
2022/05/12 15:29:48;;;;;;;5.63;1.00;;;;;;;;;;5011112;28;20042;-79
2022/05/12 15:32:14;;;;;;;2.75;0.90;;;;;;;;;;4995316;28;20050;-79